Cobble Hill, Canada
Current Conditions -  °F | °C
As of 10:00 PM on Monday 20 Oct 2014 (Local Time) from CYYJ Reporting Station
Scattered Clouds Scattered Clouds  
Wind Chill: 54°   Ceiling: Unl
Heat Index: 54°   Visibility: 20mi
Dew Point: 52°   Wind: 6mph
Humidity: 94%   Direction: 130°SE
Pressure: 29.73"   Gusts: NA
Location:  48.68°N, 123.6°W
Report Text: CYYJ 210500Z 13005KT 20SM SCT068 SCT090 12/11 A2973 RMK AC3AC1 SLP067
Loading
Personal Weather Stations






























Interactive Weather Map
Tropical Storm Tracking
New forecast layout! Learn more

10-Day Weather Forecast

Advertisements
Track Severe Weather on mobile